首页
METAR-TAF:

METAR-TAF

机场 :

威廉姆斯湖, 不列颠哥伦比亚, 加拿大

纬度: 52-11N, 经度: 122-03W, 海拔: 940米

当前天气观测

该预报发布于59分钟前的18:00 UTC
风速8节,风向西,在西南北转西北之间变化
温度 12°C
湿度 62%
气压 1017 hPa
能見度: 24.1公里
散云层高于2500英尺
散云层高于4500英尺
多云层高于9400英尺
多云层高于21000英尺

METAR: CYWL 241800Z 28008KT 230V330 15SM SCT025 SCT045 BKN094 BKN210 12/05 A3002 RMK CU4SC1AC2CI1 SC TR SLP182 DENSITY ALT 3300FT

时间: 11:59 (18:59 UTC)

预报

该预报发布于6小时和19分钟前的12:40 UTC
预报有效从24日的 13点(UTC)到 25日的 01点(UTC)
风速3节,风向多变
能見度: 10公里
散云层高于5000英尺
多云层高于8000英尺
短暂存在
从 24日的 18点(UTC)到 25日的 01点(UTC)
能見度: 10公里
散云层高于2000英尺
多云层高于5000英尺
小阵雨
成为
从 24日的 18点(UTC)到 24日的 20点(UTC)
风速8节,风向西

TAF: CYWL 241240Z 2413/2501 VRB03KT P6SM SCT050 BKN080 TEMPO 2418/2501 P6SM -SHRA SCT020 BKN050 BECMG 2418/2420 26008KT RMK NXT FCST BY 241900Z

超过4000个机场的气象观测和天气预报(METAR&TAF报告)。

可查询的气象台以黄色和红色小点在地图上表示。

将鼠标移到小点上方,可查看气象台名称。

然后点击查看天气观测和预报。

如需切换地图:点击带黑十字的绿色按钮放大地图;点击带横线的绿色按钮缩小地图;或者点击绿色箭头查看邻近地区的地图。


METAR-TAF: